Time;durP1;ratioP1;P1;durP2;ratioP2;P2;SDS_P1;SDS_P2;PMS_P1;PMS_P2;Temp;Humidity;BMP_temperature;BMP_pressure;BME280_temperature;BME280_humidity;BME280_pressure;Samples;Min_cycle;Max_cycle;Signal;HPM_P1;HPM_P2
2022/03/22 00:02:01;;;;;;;44.38;25.40;;;8.70;94.80;;;;;;5133895;27;20046;-76
2022/03/22 00:04:27;;;;;;;49.38;27.10;;;8.90;94.90;;;;;;5134116;27;20058;-77
2022/03/22 00:06:52;;;;;;;46.85;26.17;;;8.80;94.70;;;;;;5116922;27;20085;-76
2022/03/22 00:09:18;;;;;;;47.17;26.73;;;8.80;94.70;;;;;;5116392;27;20086;-76
2022/03/22 00:11:44;;;;;;;48.10;26.30;;;8.60;94.70;;;;;;5134583;27;20057;-76
2022/03/22 00:14:10;;;;;;;49.75;26.45;;;8.60;94.80;;;;;;5099914;27;20050;-76
2022/03/22 00:16:37;;;;;;;46.47;26.98;;;8.40;94.80;;;;;;5116666;28;20134;-76
2022/03/22 00:19:03;;;;;;;46.78;27.15;;;8.30;95.10;;;;;;5116670;28;20035;-76
2022/03/22 00:21:29;;;;;;;52.45;26.33;;;8.30;95.10;;;;;;5116610;28;20039;-76
2022/03/22 00:23:55;;;;;;;43.75;24.77;;;8.30;95.30;;;;;;5133669;28;20070;-76
2022/03/22 00:26:21;;;;;;;48.08;25.77;;;8.40;95.30;;;;;;5133662;28;20046;-76
2022/03/22 00:28:47;;;;;;;45.22;26.15;;;8.40;95.20;;;;;;5133234;28;20421;-76
2022/03/22 00:31:13;;;;;;;47.58;26.10;;;8.30;95.10;;;;;;5099648;28;20047;-76
2022/03/22 00:33:39;;;;;;;48.08;26.83;;;8.30;95.30;;;;;;5117280;28;20082;-76
2022/03/22 00:36:05;;;;;;;49.50;27.98;;;8.30;95.40;;;;;;5117077;28;20051;-76
2022/03/22 00:38:31;;;;;;;47.50;27.00;;;8.30;95.30;;;;;;5116206;28;20069;-76
2022/03/22 00:40:58;;;;;;;46.05;26.75;;;8.40;95.50;;;;;;5116103;28;20043;-76
2022/03/22 00:43:24;;;;;;;49.72;28.73;;;8.40;95.40;;;;;;5116466;28;20486;-76
2022/03/22 00:45:50;;;;;;;47.83;26.98;;;8.40;95.40;;;;;;5133736;28;20398;-76
2022/03/22 00:48:16;;;;;;;47.50;27.35;;;8.40;95.50;;;;;;5133294;28;20047;-76
2022/03/22 00:50:46;;;;;;;48.13;28.17;;;8.50;95.50;;;;;;5116885;28;20432;-76
2022/03/22 00:53:13;;;;;;;49.40;28.13;;;8.40;95.40;;;;;;5133578;28;20039;-76
2022/03/22 00:55:43;;;;;;;48.17;27.70;;;8.30;95.40;;;;;;5099330;27;20050;-76
2022/03/22 00:58:09;;;;;;;49.03;27.77;;;8.30;95.70;;;;;;5136672;27;20133;-76
2022/03/22 01:00:36;;;;;;;51.45;28.15;;;8.40;95.70;;;;;;5119974;27;20134;-76
2022/03/22 01:03:03;;;;;;;50.92;28.30;;;8.40;95.70;;;;;;5120246;27;20130;-76
2022/03/22 01:05:30;;;;;;;48.28;27.67;;;8.40;95.60;;;;;;5120142;27;20040;-76
2022/03/22 01:08:01;;;;;;;50.03;28.65;;;8.40;95.70;;;;;;5102859;27;20070;-76
2022/03/22 01:10:29;;;;;;;55.22;28.73;;;8.50;95.70;;;;;;5120218;27;20087;-76
2022/03/22 01:12:55;;;;;;;50.55;28.60;;;8.50;95.70;;;;;;5137104;27;20039;-76
2022/03/22 01:15:24;;;;;;;50.72;28.63;;;8.50;95.60;;;;;;5137422;27;20051;-76
2022/03/22 01:17:54;;;;;;;48.88;28.98;;;8.50;95.60;;;;;;5137365;27;20039;-76
2022/03/22 01:20:22;;;;;;;51.33;28.63;;;8.50;95.70;;;;;;5119592;27;20158;-76
2022/03/22 01:22:49;;;;;;;49.03;28.00;;;8.60;95.50;;;;;;5120198;27;20397;-76
2022/03/22 01:25:18;;;;;;;44.28;28.05;;;8.60;95.60;;;;;;5119755;27;20046;-76
2022/03/22 01:27:46;;;;;;;48.35;27.50;;;8.60;95.50;;;;;;5137115;27;20051;-76
2022/03/22 01:30:14;;;;;;;49.78;28.40;;;8.60;95.40;;;;;;5136387;27;20125;-76
2022/03/22 01:32:41;;;;;;;52.05;28.77;;;8.60;95.40;;;;;;5103011;27;20065;-76
2022/03/22 01:35:09;;;;;;;51.90;28.10;;;8.50;95.40;;;;;;5119589;27;20049;-76
2022/03/22 01:37:36;;;;;;;50.42;27.90;;;8.50;95.50;;;;;;5103307;27;20055;-76
2022/03/22 01:40:03;;;;;;;54.50;30.10;;;8.50;95.40;;;;;;5119429;27;20039;-76
2022/03/22 01:42:29;;;;;;;50.00;29.00;;;8.50;95.40;;;;;;5119417;27;20478;-76
2022/03/22 01:44:54;;;;;;;48.92;27.42;;;8.50;95.50;;;;;;5103255;27;20038;-76
2022/03/22 01:47:25;;;;;;;49.83;26.98;;;8.50;95.40;;;;;;5136294;27;20371;-76
2022/03/22 01:49:51;;;;;;;54.38;29.75;;;8.50;95.30;;;;;;5136835;27;20062;-76
2022/03/22 01:52:21;;;;;;;52.25;29.63;;;8.40;95.30;;;;;;5136047;27;20035;-76
2022/03/22 01:54:49;;;;;;;47.75;27.33;;;8.40;95.30;;;;;;5136021;27;20078;-76
2022/03/22 01:57:17;;;;;;;48.38;27.52;;;8.50;95.40;;;;;;5119528;27;20397;-76
2022/03/22 01:59:44;;;;;;;51.67;29.23;;;8.50;95.60;;;;;;5118590;27;20082;-76
2022/03/22 02:07:48;;;;;;;49.25;27.55;;;8.30;95.30;;;;;;5134877;27;20094;-76
2022/03/22 02:10:14;;;;;;;49.60;28.20;;;8.10;95.30;;;;;;5135957;27;20047;-76
2022/03/22 02:12:42;;;;;;;49.70;27.55;;;8.10;95.70;;;;;;5136031;27;20434;-76
2022/03/22 02:15:08;;;;;;;52.15;27.50;;;8.10;95.70;;;;;;5101474;27;20055;-76
2022/03/22 02:17:37;;;;;;;50.28;27.80;;;8.10;95.80;;;;;;5136020;27;20050;-76
2022/03/22 02:20:03;;;;;;;48.38;27.33;;;8.20;95.70;;;;;;5118606;27;20036;-76
2022/03/22 02:22:36;;;;;;;47.67;28.52;;;8.10;95.80;;;;;;5135821;27;20043;-76
2022/03/22 02:25:03;;;;;;;45.40;25.98;;;8.20;95.90;;;;;;5118671;27;20099;-76
2022/03/22 02:27:34;;;;;;;51.55;28.55;;;8.20;96.00;;;;;;5118576;27;20043;-76
2022/03/22 02:30:00;;;;;;;52.75;29.23;;;8.30;96.10;;;;;;5101823;27;20043;-76
2022/03/22 02:32:26;;;;;;;53.00;30.88;;;8.40;96.10;;;;;;5135767;27;20096;-76
2022/03/22 02:34:52;;;;;;;48.47;28.70;;;8.40;96.20;;;;;;5118751;27;20139;-77
2022/03/22 02:37:18;;;;;;;53.10;29.13;;;8.70;96.20;;;;;;5119038;27;20054;-77
2022/03/22 02:39:44;;;;;;;50.67;29.38;;;8.70;96.00;;;;;;5118329;27;20043;-77
2022/03/22 02:42:10;;;;;;;50.58;28.90;;;8.70;96.00;;;;;;5118530;27;20082;-76
2022/03/22 02:44:36;;;;;;;48.58;27.75;;;8.80;95.90;;;;;;5135337;27;20062;-76
2022/03/22 02:47:03;;;;;;;50.28;27.80;;;8.80;95.80;;;;;;5118287;27;20085;-76
2022/03/22 02:49:30;;;;;;;45.55;27.63;;;8.80;95.90;;;;;;5118118;27;20087;-77
2022/03/22 02:51:56;;;;;;;53.28;28.02;;;8.70;95.70;;;;;;5118458;27;20039;-77
2022/03/22 02:54:22;;;;;;;47.97;27.35;;;8.70;95.70;;;;;;5135103;27;20527;-77
2022/03/22 02:56:48;;;;;;;60.65;31.80;;;8.60;95.70;;;;;;5135098;27;20043;-76
2022/03/22 02:59:13;;;;;;;50.25;29.17;;;8.70;95.90;;;;;;5117483;27;20049;-77
2022/03/22 03:01:39;;;;;;;50.33;28.75;;;8.70;95.80;;;;;;5100979;27;20047;-76
2022/03/22 03:04:05;;;;;;;55.85;30.88;;;8.70;95.60;;;;;;5134944;27;20075;-77
2022/03/22 03:06:31;;;;;;;48.97;28.27;;;8.60;95.70;;;;;;5117850;27;20130;-76
2022/03/22 03:08:59;;;;;;;51.97;29.25;;;8.60;95.80;;;;;;5134426;27;20192;-76
2022/03/22 03:11:26;;;;;;;52.17;30.35;;;8.40;95.80;;;;;;5117841;27;20051;-76
2022/03/22 03:16:39;;;;;;;55.45;31.33;;;8.30;95.90;;;;;;5135067;27;20397;-76
2022/03/22 03:19:05;;;;;;;55.25;31.20;;;8.40;96.10;;;;;;5134872;27;20050;-76
2022/03/22 03:21:31;;;;;;;58.35;29.90;;;8.40;96.00;;;;;;5117487;27;20490;-76
2022/03/22 03:23:57;;;;;;;57.22;30.85;;;8.50;95.90;;;;;;5117404;27;20078;-76
2022/03/22 03:26:23;;;;;;;53.05;30.73;;;8.50;95.90;;;;;;5134523;27;20081;-76
2022/03/22 03:28:49;;;;;;;56.08;32.15;;;8.40;95.60;;;;;;5083122;27;20486;-76
2022/03/22 03:31:14;;;;;;;54.55;30.92;;;8.40;95.90;;;;;;5134455;27;20039;-76
2022/03/22 03:33:40;;;;;;;55.08;31.23;;;8.50;95.90;;;;;;5134853;27;20047;-76
2022/03/22 03:36:06;;;;;;;53.58;30.15;;;8.50;95.70;;;;;;5100311;27;20107;-76
2022/03/22 03:38:32;;;;;;;53.40;30.45;;;8.50;95.80;;;;;;5134304;27;20050;-77
2022/03/22 03:43:41;;;;;;;56.33;31.85;;;8.50;95.70;;;;;;5119774;27;20066;-76
2022/03/22 03:48:52;;;;;;;54.28;30.63;;;8.40;95.60;;;;;;5134267;27;20054;-76
2022/03/22 03:51:19;;;;;;;57.80;31.65;;;8.40;95.70;;;;;;5117147;27;20043;-76
2022/03/22 03:53:45;;;;;;;57.60;30.40;;;8.40;95.90;;;;;;5117196;27;20081;-76
2022/03/22 03:56:11;;;;;;;56.00;32.67;;;8.50;95.90;;;;;;5133995;27;20043;-77
2022/03/22 03:58:37;;;;;;;55.53;30.75;;;8.50;95.70;;;;;;5116499;27;20487;-76
2022/03/22 04:01:03;;;;;;;64.80;35.30;;;8.60;95.80;;;;;;5116537;27;20089;-76
2022/03/22 04:03:29;;;;;;;63.90;34.42;;;8.50;95.60;;;;;;5116771;27;20403;-76
2022/03/22 04:05:54;;;;;;;61.63;33.85;;;8.50;95.80;;;;;;5117538;27;20046;-76
2022/03/22 04:08:20;;;;;;;56.67;31.15;;;8.50;95.70;;;;;;5116016;27;20188;-76
2022/03/22 04:10:46;;;;;;;60.53;32.85;;;8.50;95.70;;;;;;5134465;27;20187;-76
2022/03/22 04:13:12;;;;;;;57.80;31.67;;;8.60;95.80;;;;;;5133817;27;20090;-76
2022/03/22 04:15:38;;;;;;;62.72;33.85;;;8.60;95.60;;;;;;5133651;27;20500;-76
2022/03/22 04:18:04;;;;;;;62.42;32.00;;;8.60;95.50;;;;;;5116753;28;20394;-77
2022/03/22 04:20:30;;;;;;;57.38;32.30;;;8.60;95.60;;;;;;5117118;28;20466;-77
2022/03/22 04:22:55;;;;;;;61.13;32.50;;;8.60;95.70;;;;;;5133645;28;20509;-76
2022/03/22 04:25:21;;;;;;;58.42;32.03;;;8.60;95.60;;;;;;5116528;28;20039;-76
2022/03/22 04:33:15;;;;;;;58.47;32.05;;;8.50;95.60;;;;;;5122847;27;20057;-76
2022/03/22 04:35:41;;;;;;;60.88;33.05;;;8.50;95.60;;;;;;5120422;27;20047;-76
2022/03/22 04:38:07;;;;;;;55.70;31.90;;;8.40;95.60;;;;;;5103775;27;20043;-77
2022/03/22 04:40:35;;;;;;;61.17;33.83;;;8.40;95.70;;;;;;5120349;27;20521;-76
2022/03/22 04:43:00;;;;;;;59.40;32.42;;;8.50;95.70;;;;;;5120210;27;20047;-76
2022/03/22 04:45:26;;;;;;;58.70;32.00;;;8.50;95.70;;;;;;5121345;27;20122;-76
2022/03/22 04:47:52;;;;;;;57.88;32.10;;;8.60;95.50;;;;;;5137656;27;20039;-76
2022/03/22 04:50:18;;;;;;;57.95;32.42;;;8.60;95.40;;;;;;5120475;27;20039;-76
2022/03/22 04:58:13;;;;;;;55.22;31.33;;;8.70;95.40;;;;;;5137726;27;20435;-77
2022/03/22 05:00:39;;;;;;;54.53;31.42;;;8.60;95.20;;;;;;5120092;27;20043;-76
2022/03/22 05:03:08;;;;;;;54.50;30.30;;;8.60;95.30;;;;;;5137403;27;20078;-76
2022/03/22 05:08:20;;;;;;;60.03;31.23;;;8.40;95.40;;;;;;5137034;27;20053;-76
2022/03/22 05:10:45;;;;;;;59.05;32.17;;;8.30;95.60;;;;;;5137175;27;20071;-76
2022/03/22 05:13:11;;;;;;;58.83;33.28;;;8.30;95.60;;;;;;5137166;27;20043;-76
2022/03/22 05:15:38;;;;;;;55.83;31.00;;;8.30;95.70;;;;;;5102978;27;20042;-76
2022/03/22 05:18:05;;;;;;;59.03;32.65;;;8.40;95.70;;;;;;5137075;27;20043;-76
2022/03/22 05:20:31;;;;;;;59.90;31.60;;;8.40;95.60;;;;;;5136725;27;20092;-76
2022/03/22 05:22:58;;;;;;;56.28;30.58;;;8.40;95.50;;;;;;5102966;27;20432;-76
2022/03/22 05:25:24;;;;;;;57.83;30.95;;;8.40;95.50;;;;;;5119758;27;20051;-76
2022/03/22 05:27:50;;;;;;;56.58;30.65;;;8.40;95.50;;;;;;5137024;27;20048;-76
2022/03/22 05:30:16;;;;;;;67.15;33.00;;;8.40;95.50;;;;;;5119351;27;20406;-76
2022/03/22 05:32:41;;;;;;;54.47;30.45;;;8.30;95.50;;;;;;5136735;27;20075;-77
2022/03/22 05:35:08;;;;;;;62.20;31.95;;;8.20;95.60;;;;;;5102312;27;20537;-76
2022/03/22 05:37:33;;;;;;;55.90;30.17;;;8.20;95.70;;;;;;5136648;27;20129;-76
2022/03/22 05:39:59;;;;;;;53.92;30.92;;;8.20;95.70;;;;;;5102674;27;20126;-77
2022/03/22 05:42:25;;;;;;;59.38;32.55;;;8.20;95.80;;;;;;5119259;27;20471;-76
2022/03/22 05:44:51;;;;;;;59.78;32.00;;;8.10;95.70;;;;;;5136765;27;20039;-76
2022/03/22 05:47:17;;;;;;;55.45;30.17;;;8.10;95.80;;;;;;5102641;27;20043;-76
2022/03/22 05:49:43;;;;;;;53.22;30.13;;;8.10;95.90;;;;;;5136651;27;20057;-76
2022/03/22 05:52:08;;;;;;;55.88;30.63;;;8.20;95.90;;;;;;5119262;27;20043;-76
2022/03/22 05:54:34;;;;;;;53.80;29.70;;;8.20;95.80;;;;;;5119147;27;20057;-76
2022/03/22 05:57:00;;;;;;;54.47;31.42;;;8.20;95.80;;;;;;5119168;27;20051;-76
2022/03/22 05:59:26;;;;;;;54.25;29.90;;;8.20;95.70;;;;;;5118627;27;20039;-76
2022/03/22 06:01:52;;;;;;;54.97;31.48;;;8.10;95.70;;;;;;5136193;27;20051;-76
2022/03/22 06:04:19;;;;;;;61.65;34.67;;;8.10;95.90;;;;;;5118711;27;20045;-76
2022/03/22 06:06:49;;;;;;;57.85;30.02;;;8.20;95.90;;;;;;5136065;27;20050;-76
2022/03/22 06:09:16;;;;;;;57.28;30.75;;;8.20;96.00;;;;;;5135932;27;20067;-76
2022/03/22 06:11:42;;;;;;;53.15;29.20;;;8.30;95.90;;;;;;5118869;27;20054;-77
2022/03/22 06:14:08;;;;;;;55.88;31.35;;;8.30;95.90;;;;;;5136766;27;20035;-77
2022/03/22 06:16:34;;;;;;;56.40;31.48;;;8.40;95.80;;;;;;5102115;27;20104;-77
2022/03/22 06:19:00;;;;;;;53.13;30.73;;;8.50;95.80;;;;;;5135810;27;20394;-76
2022/03/22 06:21:26;;;;;;;55.65;32.63;;;8.50;95.70;;;;;;5102054;27;20103;-76
2022/03/22 06:23:52;;;;;;;58.67;31.38;;;8.50;95.70;;;;;;5118697;27;20035;-76
2022/03/22 06:26:19;;;;;;;54.47;30.65;;;8.50;95.70;;;;;;5135756;27;20039;-76
2022/03/22 06:28:44;;;;;;;58.50;31.65;;;8.60;95.70;;;;;;5135294;27;20085;-76
2022/03/22 06:31:10;;;;;;;60.47;32.55;;;8.60;95.60;;;;;;5135671;27;20070;-76
2022/03/22 06:33:36;;;;;;;53.63;30.67;;;8.60;95.60;;;;;;5118663;27;20050;-76
2022/03/22 06:36:04;;;;;;;56.78;29.85;;;8.70;95.60;;;;;;5118424;27;20134;-77
2022/03/22 06:38:32;;;;;;;60.13;32.88;;;8.70;95.70;;;;;;5118050;27;20043;-77
2022/03/22 06:40:58;;;;;;;51.15;28.98;;;8.70;95.60;;;;;;5101444;27;20043;-76
2022/03/22 06:43:24;;;;;;;55.10;30.55;;;8.70;95.70;;;;;;5118450;27;20046;-76
2022/03/22 06:45:50;;;;;;;53.72;30.38;;;8.70;95.60;;;;;;5135340;27;20047;-77
2022/03/22 06:48:16;;;;;;;54.25;30.88;;;8.80;95.60;;;;;;5118579;27;20046;-75
2022/03/22 06:50:44;;;;;;;56.88;30.85;;;8.80;95.60;;;;;;5118281;27;20058;-76
2022/03/22 06:53:10;;;;;;;55.13;29.77;;;8.90;95.60;;;;;;5101340;27;20043;-76
2022/03/22 06:55:37;;;;;;;54.85;30.15;;;9.00;95.70;;;;;;5134577;27;20046;-76
2022/03/22 06:58:04;;;;;;;51.53;29.48;;;9.10;95.60;;;;;;5118420;27;20043;-77
2022/03/22 07:00:31;;;;;;;53.13;29.73;;;9.10;95.70;;;;;;5134079;27;20039;-76
2022/03/22 07:02:58;;;;;;;50.70;29.67;;;9.20;95.70;;;;;;5118028;27;20047;-77
2022/03/22 07:05:24;;;;;;;50.17;29.08;;;9.30;95.70;;;;;;5134895;27;20051;-76
2022/03/22 07:07:50;;;;;;;51.60;29.65;;;9.40;95.80;;;;;;5134685;27;20058;-77
2022/03/22 07:10:18;;;;;;;56.88;31.48;;;9.40;95.80;;;;;;5117528;27;20055;-76
2022/03/22 07:12:51;;;;;;;57.65;31.83;;;9.50;95.40;;;;;;5134839;27;20042;-77
2022/03/22 07:15:23;;;;;;;54.22;30.80;;;9.40;95.40;;;;;;5135032;27;20050;-76
2022/03/22 07:17:52;;;;;;;53.50;30.20;;;9.50;95.50;;;;;;5114067;27;20054;-77
2022/03/22 07:20:18;;;;;;;55.80;29.67;;;9.70;95.30;;;;;;5125311;27;20095;-77
2022/03/22 07:22:44;;;;;;;55.55;28.92;;;9.80;95.40;;;;;;5106467;27;20042;-77
2022/03/22 07:25:10;;;;;;;55.72;32.25;;;9.90;95.40;;;;;;5122833;27;20043;-77
2022/03/22 07:27:36;;;;;;;41.08;23.98;;;10.00;95.50;;;;;;5105156;27;20035;-77
2022/03/22 07:30:02;;;;;;;52.17;30.55;;;10.10;95.30;;;;;;5123503;27;20039;-78
2022/03/22 07:32:28;;;;;;;50.47;29.77;;;10.20;95.30;;;;;;5120568;27;20054;-75
2022/03/22 07:34:54;;;;;;;54.55;30.52;;;10.30;95.20;;;;;;5099760;27;20040;-83
2022/03/22 07:37:20;;;;;;;53.13;30.90;;;10.30;95.40;;;;;;5105954;27;20043;-79
2022/03/22 07:39:46;;;;;;;51.58;30.70;;;10.40;95.30;;;;;;5119249;27;20067;-79
2022/03/22 07:42:12;;;;;;;48.97;30.27;;;10.50;95.00;;;;;;5113710;28;20036;-79
2022/03/22 07:44:39;;;;;;;58.90;31.92;;;10.70;94.80;;;;;;5113695;28;20050;-76
2022/03/22 07:47:05;;;;;;;52.22;31.27;;;10.80;94.80;;;;;;5113790;28;20047;-78
2022/03/22 07:55:10;;;;;;;48.75;27.52;;;11.20;94.10;;;;;;5114370;28;20071;-79
2022/03/22 07:57:36;;;;;;;52.45;28.65;;;11.00;93.50;;;;;;5113656;28;20054;-79
2022/03/22 08:00:04;;;;;;;57.22;28.40;;;11.00;93.60;;;;;;5095923;28;20132;-78
2022/03/22 08:02:30;;;;;;;48.85;27.58;;;11.10;94.00;;;;;;5096851;28;20066;-78
2022/03/22 08:04:55;;;;;;;55.10;29.27;;;11.20;93.80;;;;;;5063056;28;20620;-78
2022/03/22 08:07:21;;;;;;;48.30;28.80;;;11.30;93.90;;;;;;5116155;27;20047;-79
2022/03/22 08:09:47;;;;;;;52.65;27.60;;;11.50;94.10;;;;;;5119483;27;20485;-79
2022/03/22 08:12:13;;;;;;;49.05;28.52;;;11.60;93.90;;;;;;5103212;27;20055;-78
2022/03/22 08:14:38;;;;;;;50.25;27.85;;;11.70;94.20;;;;;;5120188;27;20078;-79
2022/03/22 08:17:05;;;;;;;46.33;27.10;;;11.80;93.60;;;;;;5136894;27;20051;-77
2022/03/22 08:19:30;;;;;;;47.00;25.33;;;11.80;93.50;;;;;;5119738;27;20038;-77
2022/03/22 08:21:56;;;;;;;50.78;26.63;;;11.70;92.90;;;;;;5123593;27;20390;-79
2022/03/22 08:24:22;;;;;;;47.63;26.60;;;11.70;93.60;;;;;;5127496;27;20039;-75
2022/03/22 08:26:48;;;;;;;47.95;26.00;;;12.00;93.50;;;;;;5138031;27;20586;-76
2022/03/22 08:29:15;;;;;;;46.60;25.98;;;12.20;93.40;;;;;;5136521;27;20134;-77
2022/03/22 08:31:40;;;;;;;40.67;24.35;;;12.30;93.10;;;;;;5119915;27;20492;-77
2022/03/22 08:34:06;;;;;;;45.45;24.75;;;12.50;92.90;;;;;;5137307;27;20050;-78
2022/03/22 08:36:33;;;;;;;40.45;24.65;;;12.60;92.70;;;;;;5102978;27;20038;-78
2022/03/22 08:38:59;;;;;;;40.95;24.02;;;12.80;92.40;;;;;;5103678;27;20393;-78
2022/03/22 08:41:25;;;;;;;40.95;24.20;;;13.00;91.80;;;;;;5119949;27;20051;-78
2022/03/22 08:43:52;;;;;;;44.78;23.35;;;13.00;91.90;;;;;;5116812;27;20118;-79
2022/03/22 08:46:24;;;;;;;45.88;24.38;;;13.10;92.30;;;;;;5124496;27;20397;-78
2022/03/22 08:48:51;;;;;;;41.00;24.17;;;13.20;92.10;;;;;;5136576;27;20431;-78
2022/03/22 08:51:19;;;;;;;37.75;23.00;;;13.40;91.90;;;;;;5131376;27;20055;-78
2022/03/22 08:53:44;;;;;;;43.67;23.88;;;13.50;91.60;;;;;;5112807;27;20062;-78
2022/03/22 08:56:11;;;;;;;44.42;24.13;;;13.60;91.30;;;;;;5098782;27;20039;-79
2022/03/22 08:58:37;;;;;;;45.83;22.92;;;13.50;91.40;;;;;;5137353;27;20138;-80
2022/03/22 09:01:03;;;;;;;40.17;21.33;;;13.60;91.50;;;;;;5136212;27;20085;-79
2022/03/22 09:03:31;;;;;;;45.05;23.25;;;13.70;90.70;;;;;;5108745;28;20070;-79
2022/03/22 09:06:10;;;;;;;44.83;22.38;;;13.90;91.40;;;;;;5116009;28;20112;-79
2022/03/22 09:08:37;;;;;;;39.97;22.65;;;14.00;90.60;;;;;;5108627;28;20429;-79
2022/03/22 09:11:04;;;;;;;43.45;23.23;;;13.90;90.90;;;;;;5115886;28;20042;-79
2022/03/22 09:13:30;;;;;;;40.55;22.55;;;13.90;91.10;;;;;;5086447;27;20457;-79
2022/03/22 09:15:56;;;;;;;39.40;22.58;;;14.20;90.70;;;;;;5103251;28;20118;-78
2022/03/22 09:18:22;;;;;;;39.30;22.20;;;14.20;90.20;;;;;;5090694;27;20130;-82
2022/03/22 09:20:49;;;;;;;39.70;23.95;;;14.20;90.30;;;;;;5122373;27;20074;-77
2022/03/22 09:23:15;;;;;;;38.22;22.25;;;14.10;90.60;;;;;;5139659;27;20385;-72
2022/03/22 09:25:43;;;;;;;40.70;23.45;;;14.30;90.90;;;;;;5140362;27;20046;-75
2022/03/22 09:28:10;;;;;;;39.25;22.88;;;14.60;90.60;;;;;;5140685;27;20398;-75
2022/03/22 09:30:38;;;;;;;40.08;22.77;;;14.90;90.80;;;;;;5139870;27;20093;-75
2022/03/22 09:33:05;;;;;;;40.75;23.65;;;15.00;89.70;;;;;;5140337;27;20038;-77
2022/03/22 09:35:31;;;;;;;45.58;22.90;;;14.90;90.30;;;;;;5140119;27;20117;-80
2022/03/22 09:37:59;;;;;;;41.60;23.45;;;15.00;90.40;;;;;;5107317;27;20047;-79
2022/03/22 09:40:26;;;;;;;44.28;24.30;;;15.00;90.70;;;;;;5122730;27;20070;-75
2022/03/22 09:42:54;;;;;;;40.25;23.13;;;14.80;90.20;;;;;;5140279;27;20039;-75
2022/03/22 09:45:24;;;;;;;38.03;23.13;;;14.90;90.10;;;;;;5139687;27;20049;-76
2022/03/22 09:47:50;;;;;;;42.75;24.83;;;15.30;90.40;;;;;;5140824;27;20069;-75
2022/03/22 09:50:18;;;;;;;42.70;23.42;;;15.40;90.20;;;;;;5139543;27;20046;-76
2022/03/22 09:52:44;;;;;;;37.47;22.10;;;15.60;89.80;;;;;;5140284;27;20070;-75
2022/03/22 09:55:11;;;;;;;38.15;22.40;;;15.90;89.20;;;;;;5139844;27;20050;-75
2022/03/22 09:57:38;;;;;;;41.72;23.45;;;16.20;87.90;;;;;;5122601;27;20042;-78
2022/03/22 10:00:05;;;;;;;41.00;23.38;;;16.10;87.60;;;;;;5105013;27;20134;-77
2022/03/22 10:02:35;;;;;;;44.83;23.90;;;16.10;89.20;;;;;;5139089;27;20466;-77
2022/03/22 10:05:02;;;;;;;44.75;24.52;;;15.80;89.30;;;;;;5139605;27;20047;-78
2022/03/22 10:07:28;;;;;;;47.53;23.95;;;15.80;89.90;;;;;;5106065;27;20108;-78
2022/03/22 10:09:56;;;;;;;41.17;24.88;;;15.80;90.00;;;;;;5135779;27;20502;-78
2022/03/22 10:12:33;;;;;;;42.70;24.63;;;16.10;90.20;;;;;;5118799;27;20051;-78
2022/03/22 10:15:12;;;;;;;45.42;25.63;;;16.00;90.10;;;;;;5136544;27;20479;-78
2022/03/22 10:17:38;;;;;;;56.15;26.75;;;16.00;90.40;;;;;;5118817;27;20039;-77
2022/03/22 10:20:06;;;;;;;43.72;24.52;;;16.20;90.90;;;;;;5135595;27;20046;-74
2022/03/22 10:22:34;;;;;;;47.28;26.85;;;16.40;90.50;;;;;;5135879;27;20047;-74
2022/03/22 10:25:02;;;;;;;43.65;26.52;;;16.90;90.40;;;;;;5135806;27;20061;-74
2022/03/22 10:27:36;;;;;;;52.30;29.10;;;17.40;90.10;;;;;;5118332;27;20055;-74
2022/03/22 10:30:05;;;;;;;44.85;25.83;;;17.90;90.00;;;;;;5134280;27;20055;-75
2022/03/22 10:32:37;;;;;;;48.58;25.27;;;18.10;89.80;;;;;;5136613;27;20047;-75
2022/03/22 10:35:18;;;;;;;43.58;25.65;;;18.20;89.10;;;;;;5135644;27;20402;-75
2022/03/22 10:37:45;;;;;;;40.55;24.90;;;18.60;88.70;;;;;;5135746;27;20054;-74
2022/03/22 10:40:26;;;;;;;39.95;24.52;;;18.80;87.70;;;;;;5138732;27;20043;-77
2022/03/22 10:43:06;;;;;;;42.85;24.35;;;18.90;86.70;;;;;;5135877;27;20390;-77
2022/03/22 10:45:46;;;;;;;39.67;24.60;;;19.00;86.70;;;;;;5135454;27;20470;-77
2022/03/22 10:48:26;;;;;;;38.42;24.05;;;19.00;86.70;;;;;;5135368;27;20043;-78
2022/03/22 10:50:55;;;;;;;41.55;25.15;;;19.10;86.40;;;;;;5135782;27;20086;-77
2022/03/22 10:53:26;;;;;;;38.45;23.33;;;19.00;85.40;;;;;;5135944;27;20055;-76
2022/03/22 10:55:53;;;;;;;35.95;23.05;;;19.20;85.40;;;;;;5136240;27;20039;-74
2022/03/22 10:58:25;;;;;;;38.95;22.75;;;19.20;84.20;;;;;;5134927;27;20035;-74
2022/03/22 11:00:51;;;;;;;38.40;23.10;;;19.50;84.40;;;;;;5134380;27;20050;-75
2022/03/22 11:03:17;;;;;;;41.90;23.00;;;19.60;83.50;;;;;;5135143;27;20501;-75
2022/03/22 11:05:50;;;;;;;41.70;23.00;;;19.70;83.00;;;;;;5117782;27;20492;-75
2022/03/22 11:08:23;;;;;;;37.35;21.15;;;19.90;83.10;;;;;;5141374;27;20122;-75
2022/03/22 11:10:51;;;;;;;35.03;22.00;;;19.90;80.90;;;;;;5138341;27;20454;-75
2022/03/22 11:13:17;;;;;;;34.78;21.65;;;20.00;82.70;;;;;;5121186;27;20065;-75
2022/03/22 11:15:46;;;;;;;34.83;20.35;;;20.20;81.60;;;;;;5156481;27;20466;-77
2022/03/22 11:18:14;;;;;;;37.00;21.85;;;20.40;80.90;;;;;;5138240;27;20111;-76
2022/03/22 11:20:56;;;;;;;41.47;23.20;;;20.50;80.80;;;;;;5138618;27;20396;-76
2022/03/22 11:23:28;;;;;;;37.78;21.45;;;20.70;79.50;;;;;;5137943;27;20047;-76
2022/03/22 11:25:54;;;;;;;42.50;22.98;;;20.70;80.30;;;;;;5138037;27;20046;-76
2022/03/22 11:28:24;;;;;;;35.53;21.98;;;20.80;79.60;;;;;;5138613;27;20122;-76
2022/03/22 11:30:52;;;;;;;37.28;21.23;;;21.10;79.50;;;;;;5137563;27;20057;-77
2022/03/22 11:36:16;;;;;;;37.15;21.85;;;21.00;79.10;;;;;;5137829;27;20518;-74
2022/03/22 11:38:49;;;;;;;33.75;21.38;;;21.00;78.90;;;;;;5137817;27;20042;-76
2022/03/22 11:44:12;;;;;;;35.85;20.08;;;21.60;77.70;;;;;;5137575;27;20069;-76
2022/03/22 11:46:38;;;;;;;38.25;21.40;;;21.90;76.90;;;;;;5120525;27;20096;-76
2022/03/22 11:49:21;;;;;;;39.78;20.67;;;22.00;75.80;;;;;;5138520;27;20055;-76
2022/03/22 11:51:50;;;;;;;35.10;20.55;;;22.10;75.60;;;;;;5120256;27;20047;-76
2022/03/22 11:54:16;;;;;;;35.60;20.60;;;22.20;77.00;;;;;;5137812;27;20054;-76
2022/03/22 11:56:51;;;;;;;37.50;21.08;;;22.50;76.10;;;;;;5156141;27;20480;-75
2022/03/22 11:59:19;;;;;;;36.35;20.58;;;22.50;76.00;;;;;;5137029;27;20078;-78
2022/03/22 12:01:59;;;;;;;37.05;20.23;;;22.40;73.80;;;;;;5137454;27;20466;-80
2022/03/22 12:04:42;;;;;;;41.17;21.50;;;22.40;74.40;;;;;;5137405;27;20043;-79
2022/03/22 12:07:10;;;;;;;35.45;20.92;;;22.70;74.20;;;;;;5137192;27;20046;-75
2022/03/22 12:09:42;;;;;;;36.90;21.00;;;22.60;74.00;;;;;;5155748;27;20062;-76
2022/03/22 12:12:09;;;;;;;37.75;21.70;;;22.80;72.30;;;;;;5155870;27;20389;-77
2022/03/22 12:14:36;;;;;;;37.28;22.73;;;22.90;73.60;;;;;;5155540;27;20051;-76
2022/03/22 12:17:04;;;;;;;39.05;22.50;;;23.00;72.00;;;;;;5137310;27;20051;-76
2022/03/22 12:19:32;;;;;;;39.35;22.17;;;22.80;72.70;;;;;;5136972;27;20051;-75
2022/03/22 12:21:58;;;;;;;39.67;22.70;;;22.70;72.00;;;;;;5155511;27;20123;-76
2022/03/22 12:24:27;;;;;;;34.35;19.85;;;22.80;72.00;;;;;;5137152;27;20481;-76
2022/03/22 12:26:56;;;;;;;37.75;21.05;;;23.00;72.60;;;;;;5137416;27;20385;-76
2022/03/22 12:29:22;;;;;;;36.30;21.77;;;23.70;71.20;;;;;;5136785;27;20043;-76
2022/03/22 12:31:49;;;;;;;42.05;22.67;;;24.10;71.50;;;;;;5155572;27;20049;-76
2022/03/22 12:34:15;;;;;;;37.50;22.17;;;24.30;70.30;;;;;;5137396;27;20053;-76
2022/03/22 12:36:42;;;;;;;33.08;20.92;;;24.40;69.80;;;;;;5137059;27;20488;-76
2022/03/22 12:39:08;;;;;;;36.95;20.55;;;24.50;70.70;;;;;;5137028;27;20035;-76
2022/03/22 12:41:33;;;;;;;38.58;22.35;;;24.60;69.50;;;;;;5137006;27;20042;-76
2022/03/22 12:43:59;;;;;;;36.95;22.92;;;24.70;68.80;;;;;;5155172;27;20054;-76
2022/03/22 12:46:26;;;;;;;37.05;21.30;;;24.60;68.40;;;;;;5136732;27;20086;-76
2022/03/22 12:48:53;;;;;;;35.80;20.65;;;24.70;68.40;;;;;;5155155;27;20092;-76
2022/03/22 12:51:18;;;;;;;39.15;21.40;;;24.80;69.40;;;;;;5137010;27;20443;-75
2022/03/22 12:53:44;;;;;;;38.53;22.45;;;25.20;68.70;;;;;;5158218;27;20042;-76
2022/03/22 12:56:18;;;;;;;39.72;20.95;;;25.50;67.40;;;;;;5159457;27;20046;-76
2022/03/22 12:58:44;;;;;;;33.33;21.00;;;25.50;66.80;;;;;;5158907;27;20478;-76
2022/03/22 13:01:10;;;;;;;37.35;21.30;;;25.60;67.20;;;;;;5159120;27;20385;-76
2022/03/22 13:03:38;;;;;;;36.88;20.80;;;25.70;66.40;;;;;;5140579;27;20055;-76
2022/03/22 13:06:07;;;;;;;39.75;21.92;;;25.70;65.90;;;;;;5140805;27;20043;-75
2022/03/22 13:11:28;;;;;;;38.33;20.55;;;26.00;65.60;;;;;;5140782;27;20126;-76
2022/03/22 13:16:58;;;;;;;33.97;19.35;;;25.60;64.60;;;;;;5158886;27;20054;-76
2022/03/22 13:19:31;;;;;;;34.17;20.35;;;26.00;65.00;;;;;;5140619;27;20058;-75